sensor_id;sensor_type;location;lat;lon;timestamp;P1;durP1;ratioP1;P2;durP2;ratioP2
12480;SDS011;6305;48.398;11.762;2023-05-07T00:02:20;9.20;;;6.72;;
12480;SDS011;6305;48.398;11.762;2023-05-07T00:04:48;10.10;;;7.00;;
12480;SDS011;6305;48.398;11.762;2023-05-07T00:07:15;11.68;;;6.75;;
12480;SDS011;6305;48.398;11.762;2023-05-07T00:09:42;9.18;;;6.35;;
12480;SDS011;6305;48.398;11.762;2023-05-07T00:12:09;8.93;;;6.70;;
12480;SDS011;6305;48.398;11.762;2023-05-07T00:14:36;12.35;;;7.22;;
12480;SDS011;6305;48.398;11.762;2023-05-07T00:17:03;10.95;;;6.53;;
12480;SDS011;6305;48.398;11.762;2023-05-07T00:19:31;12.00;;;6.68;;
12480;SDS011;6305;48.398;11.762;2023-05-07T00:21:58;11.57;;;6.90;;
12480;SDS011;6305;48.398;11.762;2023-05-07T00:24:25;9.88;;;6.25;;
12480;SDS011;6305;48.398;11.762;2023-05-07T00:26:52;8.75;;;6.25;;
12480;SDS011;6305;48.398;11.762;2023-05-07T00:29:19;7.78;;;6.13;;
12480;SDS011;6305;48.398;11.762;2023-05-07T00:31:46;10.27;;;6.35;;
12480;SDS011;6305;48.398;11.762;2023-05-07T00:34:15;9.20;;;6.47;;
12480;SDS011;6305;48.398;11.762;2023-05-07T00:36:44;11.23;;;7.00;;
12480;SDS011;6305;48.398;11.762;2023-05-07T00:39:11;9.98;;;6.38;;
12480;SDS011;6305;48.398;11.762;2023-05-07T00:41:37;9.63;;;7.03;;
12480;SDS011;6305;48.398;11.762;2023-05-07T00:44:04;11.00;;;7.10;;
12480;SDS011;6305;48.398;11.762;2023-05-07T00:46:32;10.25;;;6.45;;
12480;SDS011;6305;48.398;11.762;2023-05-07T00:48:59;11.10;;;6.68;;
12480;SDS011;6305;48.398;11.762;2023-05-07T00:51:27;11.63;;;6.47;;
12480;SDS011;6305;48.398;11.762;2023-05-07T00:53:56;8.65;;;6.88;;
12480;SDS011;6305;48.398;11.762;2023-05-07T00:56:23;11.05;;;7.30;;
12480;SDS011;6305;48.398;11.762;2023-05-07T00:58:51;9.93;;;7.22;;
12480;SDS011;6305;48.398;11.762;2023-05-07T01:01:18;10.75;;;7.22;;
12480;SDS011;6305;48.398;11.762;2023-05-07T01:03:45;9.25;;;6.82;;
12480;SDS011;6305;48.398;11.762;2023-05-07T01:06:12;9.32;;;7.15;;
12480;SDS011;6305;48.398;11.762;2023-05-07T01:08:42;10.73;;;7.40;;
12480;SDS011;6305;48.398;11.762;2023-05-07T01:11:10;11.43;;;7.43;;
12480;SDS011;6305;48.398;11.762;2023-05-07T01:13:38;8.20;;;7.00;;
12480;SDS011;6305;48.398;11.762;2023-05-07T01:16:06;7.75;;;5.30;;
12480;SDS011;6305;48.398;11.762;2023-05-07T01:18:35;10.10;;;6.78;;
12480;SDS011;6305;48.398;11.762;2023-05-07T01:21:04;13.55;;;6.75;;
12480;SDS011;6305;48.398;11.762;2023-05-07T01:23:33;11.93;;;7.10;;
12480;SDS011;6305;48.398;11.762;2023-05-07T01:26:01;10.45;;;7.25;;
12480;SDS011;6305;48.398;11.762;2023-05-07T01:28:31;11.98;;;8.27;;
12480;SDS011;6305;48.398;11.762;2023-05-07T01:31:00;11.05;;;7.57;;
12480;SDS011;6305;48.398;11.762;2023-05-07T01:33:30;9.73;;;7.00;;
12480;SDS011;6305;48.398;11.762;2023-05-07T01:35:59;10.27;;;7.30;;
12480;SDS011;6305;48.398;11.762;2023-05-07T01:38:29;10.25;;;7.40;;
12480;SDS011;6305;48.398;11.762;2023-05-07T01:40:58;11.05;;;7.90;;
12480;SDS011;6305;48.398;11.762;2023-05-07T01:43:25;10.90;;;7.70;;
12480;SDS011;6305;48.398;11.762;2023-05-07T01:45:52;9.52;;;7.30;;
12480;SDS011;6305;48.398;11.762;2023-05-07T01:48:20;10.82;;;7.78;;
12480;SDS011;6305;48.398;11.762;2023-05-07T01:50:47;9.45;;;7.38;;
12480;SDS011;6305;48.398;11.762;2023-05-07T01:53:15;13.05;;;7.60;;
12480;SDS011;6305;48.398;11.762;2023-05-07T01:55:42;10.15;;;7.38;;
12480;SDS011;6305;48.398;11.762;2023-05-07T01:58:11;12.65;;;7.53;;
12480;SDS011;6305;48.398;11.762;2023-05-07T02:00:39;12.57;;;6.80;;
12480;SDS011;6305;48.398;11.762;2023-05-07T02:03:07;9.63;;;7.13;;
12480;SDS011;6305;48.398;11.762;2023-05-07T02:05:46;11.30;;;6.78;;
12480;SDS011;6305;48.398;11.762;2023-05-07T02:08:27;9.77;;;6.75;;
12480;SDS011;6305;48.398;11.762;2023-05-07T02:10:54;10.65;;;7.03;;
12480;SDS011;6305;48.398;11.762;2023-05-07T02:13:23;8.85;;;6.22;;
12480;SDS011;6305;48.398;11.762;2023-05-07T02:15:51;9.38;;;6.78;;
12480;SDS011;6305;48.398;11.762;2023-05-07T02:18:19;10.48;;;7.38;;
12480;SDS011;6305;48.398;11.762;2023-05-07T02:20:47;9.18;;;6.78;;
12480;SDS011;6305;48.398;11.762;2023-05-07T02:23:14;14.63;;;7.32;;
12480;SDS011;6305;48.398;11.762;2023-05-07T02:25:41;10.98;;;7.35;;
12480;SDS011;6305;48.398;11.762;2023-05-07T02:28:08;12.32;;;6.68;;
12480;SDS011;6305;48.398;11.762;2023-05-07T02:30:46;7.95;;;6.63;;
12480;SDS011;6305;48.398;11.762;2023-05-07T02:33:13;10.77;;;6.88;;
12480;SDS011;6305;48.398;11.762;2023-05-07T02:35:40;10.65;;;7.03;;
12480;SDS011;6305;48.398;11.762;2023-05-07T02:38:07;9.05;;;6.57;;
12480;SDS011;6305;48.398;11.762;2023-05-07T02:40:36;11.25;;;7.07;;
12480;SDS011;6305;48.398;11.762;2023-05-07T02:43:04;9.63;;;6.80;;
12480;SDS011;6305;48.398;11.762;2023-05-07T02:45:31;13.27;;;7.70;;
12480;SDS011;6305;48.398;11.762;2023-05-07T02:48:01;10.60;;;7.22;;
12480;SDS011;6305;48.398;11.762;2023-05-07T02:50:29;9.35;;;6.97;;
12480;SDS011;6305;48.398;11.762;2023-05-07T02:52:56;14.23;;;7.90;;
12480;SDS011;6305;48.398;11.762;2023-05-07T02:55:22;10.02;;;7.22;;
12480;SDS011;6305;48.398;11.762;2023-05-07T02:57:49;14.63;;;8.48;;
12480;SDS011;6305;48.398;11.762;2023-05-07T03:00:18;17.90;;;9.10;;
12480;SDS011;6305;48.398;11.762;2023-05-07T03:03:07;12.77;;;8.68;;
12480;SDS011;6305;48.398;11.762;2023-05-07T03:05:36;10.73;;;8.10;;
12480;SDS011;6305;48.398;11.762;2023-05-07T03:08:03;12.85;;;8.57;;
12480;SDS011;6305;48.398;11.762;2023-05-07T03:10:30;14.45;;;8.48;;
12480;SDS011;6305;48.398;11.762;2023-05-07T03:12:57;11.15;;;8.55;;
12480;SDS011;6305;48.398;11.762;2023-05-07T03:15:24;11.57;;;8.55;;
12480;SDS011;6305;48.398;11.762;2023-05-07T03:17:52;13.80;;;10.00;;
12480;SDS011;6305;48.398;11.762;2023-05-07T03:20:20;13.63;;;9.43;;
12480;SDS011;6305;48.398;11.762;2023-05-07T03:22:47;13.38;;;9.38;;
12480;SDS011;6305;48.398;11.762;2023-05-07T03:25:14;12.20;;;9.20;;
12480;SDS011;6305;48.398;11.762;2023-05-07T03:27:40;13.55;;;9.52;;
12480;SDS011;6305;48.398;11.762;2023-05-07T03:30:08;13.32;;;9.27;;
12480;SDS011;6305;48.398;11.762;2023-05-07T03:32:36;12.65;;;8.68;;
12480;SDS011;6305;48.398;11.762;2023-05-07T03:35:06;14.43;;;9.52;;
12480;SDS011;6305;48.398;11.762;2023-05-07T03:37:35;15.07;;;9.32;;
12480;SDS011;6305;48.398;11.762;2023-05-07T03:40:02;16.63;;;10.35;;
12480;SDS011;6305;48.398;11.762;2023-05-07T03:42:36;17.95;;;11.18;;
12480;SDS011;6305;48.398;11.762;2023-05-07T03:45:03;18.48;;;11.00;;
12480;SDS011;6305;48.398;11.762;2023-05-07T03:47:31;13.10;;;8.50;;
12480;SDS011;6305;48.398;11.762;2023-05-07T03:49:58;18.23;;;11.48;;
12480;SDS011;6305;48.398;11.762;2023-05-07T03:52:25;18.60;;;11.02;;
12480;SDS011;6305;48.398;11.762;2023-05-07T03:54:58;17.80;;;11.65;;
12480;SDS011;6305;48.398;11.762;2023-05-07T03:57:25;19.55;;;12.13;;
12480;SDS011;6305;48.398;11.762;2023-05-07T03:59:52;19.10;;;11.18;;
12480;SDS011;6305;48.398;11.762;2023-05-07T04:02:19;20.23;;;13.32;;
12480;SDS011;6305;48.398;11.762;2023-05-07T04:04:48;20.65;;;13.55;;
12480;SDS011;6305;48.398;11.762;2023-05-07T04:07:15;21.63;;;13.70;;
12480;SDS011;6305;48.398;11.762;2023-05-07T04:09:47;22.95;;;13.80;;
12480;SDS011;6305;48.398;11.762;2023-05-07T04:12:15;21.48;;;13.90;;
12480;SDS011;6305;48.398;11.762;2023-05-07T04:14:42;23.55;;;13.73;;
12480;SDS011;6305;48.398;11.762;2023-05-07T04:17:09;22.80;;;12.88;;
12480;SDS011;6305;48.398;11.762;2023-05-07T04:19:37;22.70;;;13.68;;
12480;SDS011;6305;48.398;11.762;2023-05-07T04:22:05;21.98;;;13.48;;
12480;SDS011;6305;48.398;11.762;2023-05-07T04:24:32;20.38;;;13.52;;
12480;SDS011;6305;48.398;11.762;2023-05-07T04:27:00;18.88;;;12.48;;
12480;SDS011;6305;48.398;11.762;2023-05-07T04:29:29;19.73;;;13.00;;
12480;SDS011;6305;48.398;11.762;2023-05-07T04:31:56;24.90;;;14.05;;
12480;SDS011;6305;48.398;11.762;2023-05-07T04:34:24;22.25;;;12.57;;
12480;SDS011;6305;48.398;11.762;2023-05-07T04:36:52;19.40;;;13.27;;
12480;SDS011;6305;48.398;11.762;2023-05-07T04:39:18;19.55;;;12.52;;
12480;SDS011;6305;48.398;11.762;2023-05-07T04:41:47;21.70;;;12.80;;
12480;SDS011;6305;48.398;11.762;2023-05-07T04:44:14;19.77;;;12.77;;
12480;SDS011;6305;48.398;11.762;2023-05-07T04:46:44;21.13;;;13.38;;
12480;SDS011;6305;48.398;11.762;2023-05-07T04:49:10;22.02;;;14.07;;
12480;SDS011;6305;48.398;11.762;2023-05-07T04:51:38;19.60;;;13.77;;
12480;SDS011;6305;48.398;11.762;2023-05-07T04:54:09;22.05;;;13.68;;
12480;SDS011;6305;48.398;11.762;2023-05-07T04:56:36;17.90;;;13.43;;
12480;SDS011;6305;48.398;11.762;2023-05-07T04:59:03;20.77;;;13.80;;
12480;SDS011;6305;48.398;11.762;2023-05-07T05:01:31;21.15;;;13.25;;
12480;SDS011;6305;48.398;11.762;2023-05-07T05:03:59;18.10;;;12.90;;
12480;SDS011;6305;48.398;11.762;2023-05-07T05:06:26;16.95;;;12.57;;
12480;SDS011;6305;48.398;11.762;2023-05-07T05:08:53;13.18;;;10.82;;
12480;SDS011;6305;48.398;11.762;2023-05-07T05:11:21;13.10;;;8.77;;
12480;SDS011;6305;48.398;11.762;2023-05-07T05:13:48;9.05;;;8.10;;
12480;SDS011;6305;48.398;11.762;2023-05-07T05:16:18;8.05;;;7.22;;
12480;SDS011;6305;48.398;11.762;2023-05-07T05:18:45;7.70;;;6.45;;
12480;SDS011;6305;48.398;11.762;2023-05-07T05:21:16;6.38;;;5.78;;
12480;SDS011;6305;48.398;11.762;2023-05-07T05:23:45;5.88;;;5.30;;
12480;SDS011;6305;48.398;11.762;2023-05-07T05:26:17;6.97;;;4.72;;
12480;SDS011;6305;48.398;11.762;2023-05-07T05:28:44;4.95;;;4.55;;
12480;SDS011;6305;48.398;11.762;2023-05-07T05:31:11;6.70;;;4.82;;
12480;SDS011;6305;48.398;11.762;2023-05-07T05:33:39;5.82;;;4.63;;
12480;SDS011;6305;48.398;11.762;2023-05-07T05:36:08;4.90;;;4.40;;
12480;SDS011;6305;48.398;11.762;2023-05-07T05:38:38;4.88;;;4.40;;
12480;SDS011;6305;48.398;11.762;2023-05-07T05:41:07;7.78;;;4.20;;
12480;SDS011;6305;48.398;11.762;2023-05-07T05:43:34;4.95;;;4.47;;
12480;SDS011;6305;48.398;11.762;2023-05-07T05:46:01;6.38;;;4.70;;
12480;SDS011;6305;48.398;11.762;2023-05-07T05:48:29;6.03;;;4.97;;
12480;SDS011;6305;48.398;11.762;2023-05-07T05:50:59;5.90;;;4.70;;
12480;SDS011;6305;48.398;11.762;2023-05-07T05:53:26;5.63;;;4.75;;
12480;SDS011;6305;48.398;11.762;2023-05-07T05:55:55;4.68;;;4.28;;
12480;SDS011;6305;48.398;11.762;2023-05-07T05:58:23;4.63;;;4.22;;
12480;SDS011;6305;48.398;11.762;2023-05-07T06:00:55;4.55;;;4.15;;
12480;SDS011;6305;48.398;11.762;2023-05-07T06:03:25;5.47;;;4.72;;
12480;SDS011;6305;48.398;11.762;2023-05-07T06:05:52;4.95;;;4.30;;
12480;SDS011;6305;48.398;11.762;2023-05-07T06:08:21;4.60;;;4.05;;
12480;SDS011;6305;48.398;11.762;2023-05-07T06:10:48;5.97;;;3.63;;
12480;SDS011;6305;48.398;11.762;2023-05-07T06:13:17;4.20;;;3.85;;
12480;SDS011;6305;48.398;11.762;2023-05-07T06:15:43;4.68;;;3.80;;
12480;SDS011;6305;48.398;11.762;2023-05-07T06:18:12;4.35;;;3.92;;
12480;SDS011;6305;48.398;11.762;2023-05-07T06:20:40;4.68;;;4.03;;
12480;SDS011;6305;48.398;11.762;2023-05-07T06:23:11;5.05;;;4.55;;
12480;SDS011;6305;48.398;11.762;2023-05-07T06:25:38;3.78;;;3.47;;
12480;SDS011;6305;48.398;11.762;2023-05-07T06:28:06;4.95;;;4.45;;
12480;SDS011;6305;48.398;11.762;2023-05-07T06:30:37;4.30;;;3.90;;
12480;SDS011;6305;48.398;11.762;2023-05-07T06:33:04;5.53;;;5.03;;
12480;SDS011;6305;48.398;11.762;2023-05-07T06:35:31;5.53;;;5.03;;
12480;SDS011;6305;48.398;11.762;2023-05-07T06:37:58;5.15;;;4.65;;
12480;SDS011;6305;48.398;11.762;2023-05-07T06:40:28;6.45;;;5.85;;
12480;SDS011;6305;48.398;11.762;2023-05-07T06:42:57;9.07;;;7.60;;
12480;SDS011;6305;48.398;11.762;2023-05-07T06:45:43;6.05;;;5.45;;
12480;SDS011;6305;48.398;11.762;2023-05-07T06:48:10;5.53;;;5.03;;
12480;SDS011;6305;48.398;11.762;2023-05-07T06:50:47;5.60;;;5.10;;
12480;SDS011;6305;48.398;11.762;2023-05-07T06:53:15;5.88;;;5.28;;
12480;SDS011;6305;48.398;11.762;2023-05-07T06:55:42;6.30;;;5.70;;
12480;SDS011;6305;48.398;11.762;2023-05-07T06:58:10;6.50;;;5.30;;
12480;SDS011;6305;48.398;11.762;2023-05-07T07:00:38;5.53;;;5.03;;
12480;SDS011;6305;48.398;11.762;2023-05-07T07:03:07;6.07;;;5.47;;
12480;SDS011;6305;48.398;11.762;2023-05-07T07:05:35;6.13;;;5.60;;
12480;SDS011;6305;48.398;11.762;2023-05-07T07:08:03;5.70;;;5.20;;
12480;SDS011;6305;48.398;11.762;2023-05-07T07:10:30;5.82;;;5.32;;
12480;SDS011;6305;48.398;11.762;2023-05-07T07:12:58;6.22;;;5.25;;
12480;SDS011;6305;48.398;11.762;2023-05-07T07:15:26;6.70;;;6.10;;
12480;SDS011;6305;48.398;11.762;2023-05-07T07:17:54;6.07;;;5.30;;
12480;SDS011;6305;48.398;11.762;2023-05-07T07:20:24;7.50;;;5.78;;
12480;SDS011;6305;48.398;11.762;2023-05-07T07:22:51;5.40;;;4.93;;
12480;SDS011;6305;48.398;11.762;2023-05-07T07:25:18;5.28;;;4.85;;
12480;SDS011;6305;48.398;11.762;2023-05-07T07:27:47;5.57;;;5.05;;
12480;SDS011;6305;48.398;11.762;2023-05-07T07:30:14;6.30;;;5.80;;
12480;SDS011;6305;48.398;11.762;2023-05-07T07:32:45;5.53;;;4.82;;
12480;SDS011;6305;48.398;11.762;2023-05-07T07:35:12;5.70;;;4.95;;
12480;SDS011;6305;48.398;11.762;2023-05-07T07:37:41;4.82;;;4.03;;
12480;SDS011;6305;48.398;11.762;2023-05-07T07:40:08;5.38;;;4.97;;
12480;SDS011;6305;48.398;11.762;2023-05-07T07:42:36;5.60;;;5.10;;
12480;SDS011;6305;48.398;11.762;2023-05-07T07:45:03;5.13;;;4.60;;
12480;SDS011;6305;48.398;11.762;2023-05-07T07:47:34;7.40;;;6.70;;
12480;SDS011;6305;48.398;11.762;2023-05-07T07:50:01;4.82;;;4.40;;
12480;SDS011;6305;48.398;11.762;2023-05-07T07:52:28;4.45;;;4.05;;
12480;SDS011;6305;48.398;11.762;2023-05-07T07:54:57;5.70;;;4.72;;
12480;SDS011;6305;48.398;11.762;2023-05-07T07:57:24;5.90;;;5.10;;
12480;SDS011;6305;48.398;11.762;2023-05-07T07:59:51;5.82;;;5.32;;
12480;SDS011;6305;48.398;11.762;2023-05-07T08:02:19;4.22;;;3.92;;
12480;SDS011;6305;48.398;11.762;2023-05-07T08:04:48;4.25;;;3.85;;
12480;SDS011;6305;48.398;11.762;2023-05-07T08:07:16;4.78;;;4.32;;
12480;SDS011;6305;48.398;11.762;2023-05-07T08:09:47;4.45;;;4.05;;
12480;SDS011;6305;48.398;11.762;2023-05-07T08:12:17;4.32;;;4.00;;
12480;SDS011;6305;48.398;11.762;2023-05-07T08:14:45;4.57;;;4.18;;
12480;SDS011;6305;48.398;11.762;2023-05-07T08:17:12;5.15;;;4.07;;
12480;SDS011;6305;48.398;11.762;2023-05-07T08:19:41;4.20;;;3.90;;
12480;SDS011;6305;48.398;11.762;2023-05-07T08:22:11;4.60;;;3.60;;
12480;SDS011;6305;48.398;11.762;2023-05-07T08:24:38;5.20;;;4.13;;
12480;SDS011;6305;48.398;11.762;2023-05-07T08:27:06;4.13;;;3.72;;
12480;SDS011;6305;48.398;11.762;2023-05-07T08:29:35;3.25;;;2.95;;
12480;SDS011;6305;48.398;11.762;2023-05-07T08:32:02;4.18;;;3.83;;
12480;SDS011;6305;48.398;11.762;2023-05-07T08:34:29;4.20;;;3.47;;
12480;SDS011;6305;48.398;11.762;2023-05-07T08:36:58;3.92;;;2.88;;
12480;SDS011;6305;48.398;11.762;2023-05-07T08:39:26;5.05;;;2.80;;
12480;SDS011;6305;48.398;11.762;2023-05-07T08:41:55;4.32;;;3.08;;
12480;SDS011;6305;48.398;11.762;2023-05-07T08:44:23;3.38;;;3.08;;
12480;SDS011;6305;48.398;11.762;2023-05-07T08:46:54;3.22;;;3.00;;
12480;SDS011;6305;48.398;11.762;2023-05-07T08:49:23;3.17;;;2.88;;
12480;SDS011;6305;48.398;11.762;2023-05-07T08:51:51;3.50;;;3.20;;
12480;SDS011;6305;48.398;11.762;2023-05-07T08:54:20;3.65;;;3.00;;
12480;SDS011;6305;48.398;11.762;2023-05-07T08:56:47;3.70;;;3.33;;
12480;SDS011;6305;48.398;11.762;2023-05-07T08:59:15;3.22;;;3.03;;
12480;SDS011;6305;48.398;11.762;2023-05-07T09:01:43;3.67;;;3.38;;
12480;SDS011;6305;48.398;11.762;2023-05-07T09:04:12;3.50;;;3.20;;
12480;SDS011;6305;48.398;11.762;2023-05-07T09:06:40;2.67;;;2.45;;
12480;SDS011;6305;48.398;11.762;2023-05-07T09:09:09;3.40;;;3.10;;
12480;SDS011;6305;48.398;11.762;2023-05-07T09:11:41;3.00;;;2.80;;
12480;SDS011;6305;48.398;11.762;2023-05-07T09:14:10;3.35;;;2.20;;
12480;SDS011;6305;48.398;11.762;2023-05-07T09:16:40;3.00;;;2.70;;
12480;SDS011;6305;48.398;11.762;2023-05-07T09:19:08;2.97;;;2.78;;
12480;SDS011;6305;48.398;11.762;2023-05-07T09:21:37;2.63;;;2.42;;
12480;SDS011;6305;48.398;11.762;2023-05-07T09:24:08;2.83;;;2.22;;
12480;SDS011;6305;48.398;11.762;2023-05-07T09:26:39;2.85;;;2.65;;
12480;SDS011;6305;48.398;11.762;2023-05-07T09:29:07;2.75;;;2.33;;
12480;SDS011;6305;48.398;11.762;2023-05-07T09:31:36;2.40;;;2.20;;
12480;SDS011;6305;48.398;11.762;2023-05-07T09:34:04;2.95;;;2.50;;
12480;SDS011;6305;48.398;11.762;2023-05-07T09:36:33;3.00;;;2.78;;
12480;SDS011;6305;48.398;11.762;2023-05-07T09:39:03;2.40;;;2.20;;
12480;SDS011;6305;48.398;11.762;2023-05-07T09:41:30;2.42;;;2.22;;
12480;SDS011;6305;48.398;11.762;2023-05-07T09:44:05;3.25;;;2.60;;
12480;SDS011;6305;48.398;11.762;2023-05-07T09:46:38;3.00;;;2.75;;
12480;SDS011;6305;48.398;11.762;2023-05-07T09:49:16;3.72;;;2.58;;
12480;SDS011;6305;48.398;11.762;2023-05-07T09:51:50;9.90;;;3.20;;
12480;SDS011;6305;48.398;11.762;2023-05-07T09:54:21;2.67;;;2.30;;
12480;SDS011;6305;48.398;11.762;2023-05-07T09:56:51;2.45;;;2.25;;
12480;SDS011;6305;48.398;11.762;2023-05-07T09:59:22;2.50;;;2.30;;
12480;SDS011;6305;48.398;11.762;2023-05-07T10:01:51;3.33;;;2.75;;
12480;SDS011;6305;48.398;11.762;2023-05-07T10:04:22;4.55;;;2.90;;
12480;SDS011;6305;48.398;11.762;2023-05-07T10:06:52;3.30;;;3.00;;
12480;SDS011;6305;48.398;11.762;2023-05-07T10:09:22;3.47;;;3.10;;
12480;SDS011;6305;48.398;11.762;2023-05-07T10:11:50;3.25;;;2.92;;
12480;SDS011;6305;48.398;11.762;2023-05-07T10:14:20;2.50;;;2.30;;
12480;SDS011;6305;48.398;11.762;2023-05-07T10:16:48;2.80;;;2.60;;
12480;SDS011;6305;48.398;11.762;2023-05-07T10:19:16;2.60;;;2.40;;
12480;SDS011;6305;48.398;11.762;2023-05-07T10:21:48;4.03;;;3.03;;
12480;SDS011;6305;48.398;11.762;2023-05-07T10:24:25;2.08;;;1.88;;
12480;SDS011;6305;48.398;11.762;2023-05-07T10:26:56;3.75;;;2.70;;
12480;SDS011;6305;48.398;11.762;2023-05-07T10:29:29;2.42;;;2.22;;
12480;SDS011;6305;48.398;11.762;2023-05-07T10:32:10;2.53;;;2.33;;
12480;SDS011;6305;48.398;11.762;2023-05-07T10:34:54;2.75;;;2.42;;
12480;SDS011;6305;48.398;11.762;2023-05-07T10:37:25;2.60;;;2.40;;
12480;SDS011;6305;48.398;11.762;2023-05-07T10:39:56;2.50;;;2.30;;
12480;SDS011;6305;48.398;11.762;2023-05-07T10:42:25;2.15;;;1.90;;
12480;SDS011;6305;48.398;11.762;2023-05-07T10:44:54;2.25;;;2.00;;
12480;SDS011;6305;48.398;11.762;2023-05-07T10:47:25;2.55;;;1.92;;
12480;SDS011;6305;48.398;11.762;2023-05-07T10:56:25;2.25;;;2.05;;
12480;SDS011;6305;48.398;11.762;2023-05-07T11:02:18;2.20;;;2.05;;
12480;SDS011;6305;48.398;11.762;2023-05-07T11:07:53;2.70;;;2.50;;
12480;SDS011;6305;48.398;11.762;2023-05-07T11:10:22;2.65;;;2.45;;
12480;SDS011;6305;48.398;11.762;2023-05-07T11:13:00;3.03;;;2.47;;
12480;SDS011;6305;48.398;11.762;2023-05-07T11:15:42;2.30;;;2.10;;
12480;SDS011;6305;48.398;11.762;2023-05-07T11:18:20;2.55;;;2.35;;
12480;SDS011;6305;48.398;11.762;2023-05-07T11:20:54;2.35;;;2.15;;
12480;SDS011;6305;48.398;11.762;2023-05-07T11:23:56;2.60;;;2.40;;
12480;SDS011;6305;48.398;11.762;2023-05-07T11:26:47;1.83;;;1.73;;
12480;SDS011;6305;48.398;11.762;2023-05-07T11:29:17;2.42;;;2.22;;
12480;SDS011;6305;48.398;11.762;2023-05-07T11:31:48;2.10;;;1.90;;
12480;SDS011;6305;48.398;11.762;2023-05-07T11:34:20;2.10;;;2.00;;
12480;SDS011;6305;48.398;11.762;2023-05-07T11:36:48;2.03;;;1.92;;
12480;SDS011;6305;48.398;11.762;2023-05-07T11:39:24;2.20;;;2.00;;
12480;SDS011;6305;48.398;11.762;2023-05-07T11:41:52;2.20;;;1.63;;
12480;SDS011;6305;48.398;11.762;2023-05-07T11:44:21;2.63;;;2.03;;
12480;SDS011;6305;48.398;11.762;2023-05-07T11:46:48;2.95;;;2.00;;
12480;SDS011;6305;48.398;11.762;2023-05-07T11:49:15;2.95;;;2.20;;
12480;SDS011;6305;48.398;11.762;2023-05-07T11:51:42;2.50;;;2.10;;
12480;SDS011;6305;48.398;11.762;2023-05-07T11:54:10;3.22;;;1.77;;
12480;SDS011;6305;48.398;11.762;2023-05-07T11:56:39;3.25;;;1.98;;
12480;SDS011;6305;48.398;11.762;2023-05-07T11:59:05;2.05;;;1.83;;
12480;SDS011;6305;48.398;11.762;2023-05-07T12:01:35;2.08;;;1.67;;
12480;SDS011;6305;48.398;11.762;2023-05-07T12:04:03;2.80;;;2.00;;
12480;SDS011;6305;48.398;11.762;2023-05-07T12:06:30;1.90;;;1.80;;
12480;SDS011;6305;48.398;11.762;2023-05-07T12:08:57;2.05;;;1.80;;
12480;SDS011;6305;48.398;11.762;2023-05-07T12:11:24;3.50;;;1.70;;
12480;SDS011;6305;48.398;11.762;2023-05-07T12:13:53;2.47;;;1.65;;
12480;SDS011;6305;48.398;11.762;2023-05-07T12:16:20;2.15;;;1.95;;
12480;SDS011;6305;48.398;11.762;2023-05-07T12:18:49;2.58;;;1.75;;
12480;SDS011;6305;48.398;11.762;2023-05-07T12:21:17;3.72;;;1.95;;
12480;SDS011;6305;48.398;11.762;2023-05-07T12:23:45;2.00;;;1.58;;
12480;SDS011;6305;48.398;11.762;2023-05-07T12:26:12;3.47;;;1.45;;
12480;SDS011;6305;48.398;11.762;2023-05-07T12:28:39;2.13;;;1.30;;
12480;SDS011;6305;48.398;11.762;2023-05-07T12:31:06;1.58;;;1.48;;
12480;SDS011;6305;48.398;11.762;2023-05-07T12:33:33;1.80;;;1.67;;
12480;SDS011;6305;48.398;11.762;2023-05-07T12:36:06;2.50;;;1.58;;
12480;SDS011;6305;48.398;11.762;2023-05-07T12:38:34;1.60;;;1.50;;
12480;SDS011;6305;48.398;11.762;2023-05-07T12:41:03;2.00;;;1.60;;
12480;SDS011;6305;48.398;11.762;2023-05-07T12:43:32;1.60;;;1.50;;
12480;SDS011;6305;48.398;11.762;2023-05-07T12:46:00;1.67;;;1.58;;
12480;SDS011;6305;48.398;11.762;2023-05-07T12:48:28;2.00;;;1.80;;
12480;SDS011;6305;48.398;11.762;2023-05-07T12:50:55;1.70;;;1.60;;
12480;SDS011;6305;48.398;11.762;2023-05-07T12:53:25;2.40;;;1.60;;
12480;SDS011;6305;48.398;11.762;2023-05-07T12:55:54;2.92;;;1.50;;
12480;SDS011;6305;48.398;11.762;2023-05-07T12:58:24;2.03;;;1.35;;
12480;SDS011;6305;48.398;11.762;2023-05-07T13:00:53;1.65;;;1.50;;
12480;SDS011;6305;48.398;11.762;2023-05-07T13:03:26;2.33;;;1.40;;
12480;SDS011;6305;48.398;11.762;2023-05-07T13:05:55;1.98;;;1.52;;
12480;SDS011;6305;48.398;11.762;2023-05-07T13:08:26;1.70;;;1.60;;
12480;SDS011;6305;48.398;11.762;2023-05-07T13:10:54;1.40;;;1.30;;
12480;SDS011;6305;48.398;11.762;2023-05-07T13:13:21;1.42;;;1.33;;
12480;SDS011;6305;48.398;11.762;2023-05-07T13:15:48;2.58;;;1.33;;
12480;SDS011;6305;48.398;11.762;2023-05-07T13:18:15;1.38;;;1.27;;
12480;SDS011;6305;48.398;11.762;2023-05-07T13:20:43;2.00;;;1.40;;
12480;SDS011;6305;48.398;11.762;2023-05-07T13:23:09;1.58;;;1.48;;
12480;SDS011;6305;48.398;11.762;2023-05-07T13:25:38;2.75;;;1.50;;
12480;SDS011;6305;48.398;11.762;2023-05-07T13:28:05;2.22;;;1.42;;
12480;SDS011;6305;48.398;11.762;2023-05-07T13:30:32;2.10;;;1.80;;
12480;SDS011;6305;48.398;11.762;2023-05-07T13:32:59;1.77;;;1.52;;
12480;SDS011;6305;48.398;11.762;2023-05-07T13:35:26;1.83;;;1.70;;
12480;SDS011;6305;48.398;11.762;2023-05-07T13:37:53;1.60;;;1.50;;
12480;SDS011;6305;48.398;11.762;2023-05-07T13:40:20;2.08;;;1.60;;
12480;SDS011;6305;48.398;11.762;2023-05-07T13:42:49;2.75;;;1.58;;
12480;SDS011;6305;48.398;11.762;2023-05-07T13:45:16;3.03;;;1.60;;
12480;SDS011;6305;48.398;11.762;2023-05-07T13:47:44;1.42;;;1.27;;
12480;SDS011;6305;48.398;11.762;2023-05-07T13:50:12;1.88;;;1.60;;
12480;SDS011;6305;48.398;11.762;2023-05-07T13:52:40;2.20;;;1.60;;
12480;SDS011;6305;48.398;11.762;2023-05-07T13:55:11;2.67;;;1.58;;
12480;SDS011;6305;48.398;11.762;2023-05-07T13:57:38;1.67;;;1.58;;
12480;SDS011;6305;48.398;11.762;2023-05-07T14:00:08;2.08;;;1.50;;
12480;SDS011;6305;48.398;11.762;2023-05-07T14:02:41;1.90;;;1.70;;
12480;SDS011;6305;48.398;11.762;2023-05-07T14:05:09;2.05;;;1.70;;
12480;SDS011;6305;48.398;11.762;2023-05-07T14:07:36;1.73;;;1.63;;
12480;SDS011;6305;48.398;11.762;2023-05-07T14:10:03;2.53;;;2.30;;
12480;SDS011;6305;48.398;11.762;2023-05-07T14:12:31;1.70;;;1.60;;
12480;SDS011;6305;48.398;11.762;2023-05-07T14:14:59;1.60;;;1.50;;
12480;SDS011;6305;48.398;11.762;2023-05-07T14:17:27;1.77;;;1.67;;
12480;SDS011;6305;48.398;11.762;2023-05-07T14:19:55;1.70;;;1.60;;
12480;SDS011;6305;48.398;11.762;2023-05-07T14:22:23;2.00;;;1.50;;
12480;SDS011;6305;48.398;11.762;2023-05-07T14:24:50;2.15;;;1.63;;
12480;SDS011;6305;48.398;11.762;2023-05-07T14:27:17;2.25;;;1.70;;
12480;SDS011;6305;48.398;11.762;2023-05-07T14:29:44;1.42;;;1.33;;
12480;SDS011;6305;48.398;11.762;2023-05-07T14:32:16;1.40;;;1.30;;
12480;SDS011;6305;48.398;11.762;2023-05-07T14:34:44;1.85;;;1.38;;
12480;SDS011;6305;48.398;11.762;2023-05-07T14:37:12;2.42;;;1.67;;
12480;SDS011;6305;48.398;11.762;2023-05-07T14:39:39;2.10;;;1.48;;
12480;SDS011;6305;48.398;11.762;2023-05-07T14:42:06;1.60;;;1.50;;
12480;SDS011;6305;48.398;11.762;2023-05-07T14:44:34;2.05;;;1.77;;
12480;SDS011;6305;48.398;11.762;2023-05-07T14:47:01;3.15;;;1.80;;
12480;SDS011;6305;48.398;11.762;2023-05-07T14:49:27;2.10;;;1.50;;
12480;SDS011;6305;48.398;11.762;2023-05-07T14:51:56;2.38;;;1.50;;
12480;SDS011;6305;48.398;11.762;2023-05-07T14:54:24;1.63;;;1.52;;
12480;SDS011;6305;48.398;11.762;2023-05-07T14:56:51;1.55;;;1.45;;
12480;SDS011;6305;48.398;11.762;2023-05-07T14:59:18;2.15;;;1.60;;
12480;SDS011;6305;48.398;11.762;2023-05-07T15:01:46;1.75;;;1.55;;
12480;SDS011;6305;48.398;11.762;2023-05-07T15:04:14;2.97;;;1.98;;
12480;SDS011;6305;48.398;11.762;2023-05-07T15:06:41;2.40;;;1.83;;